sensor_id;sensor_type;location;lat;lon;timestamp;pressure;altitude;pressure_sealevel;temperature;humidity
21644;BME280;10983;51.982;9.226;2023-02-19T00:01:34;65387.91;;;-139.23;100.00
21644;BME280;10983;51.982;9.226;2023-02-19T00:04:05;65387.91;;;-139.23;100.00
21644;BME280;10983;51.982;9.226;2023-02-19T00:06:34;65387.91;;;-139.23;100.00
21644;BME280;10983;51.982;9.226;2023-02-19T00:09:02;65387.91;;;-139.23;100.00
21644;BME280;10983;51.982;9.226;2023-02-19T00:11:32;65387.91;;;-139.23;100.00
21644;BME280;10983;51.982;9.226;2023-02-19T00:14:01;65387.91;;;-139.23;100.00
21644;BME280;10983;51.982;9.226;2023-02-19T00:16:31;65387.91;;;-139.23;100.00
21644;BME280;10983;51.982;9.226;2023-02-19T00:19:01;65387.91;;;-139.23;100.00
21644;BME280;10983;51.982;9.226;2023-02-19T00:21:30;65387.91;;;-139.23;100.00
21644;BME280;10983;51.982;9.226;2023-02-19T00:24:01;65387.91;;;-139.23;100.00
21644;BME280;10983;51.982;9.226;2023-02-19T00:26:28;65387.91;;;-139.23;100.00
21644;BME280;10983;51.982;9.226;2023-02-19T00:28:56;65387.91;;;-139.23;100.00
21644;BME280;10983;51.982;9.226;2023-02-19T00:31:25;65387.91;;;-139.23;100.00
21644;BME280;10983;51.982;9.226;2023-02-19T00:33:57;65387.91;;;-139.23;100.00
21644;BME280;10983;51.982;9.226;2023-02-19T00:36:26;65387.91;;;-139.23;100.00
21644;BME280;10983;51.982;9.226;2023-02-19T00:38:55;65387.91;;;-139.23;100.00
21644;BME280;10983;51.982;9.226;2023-02-19T00:41:23;65387.91;;;-139.23;100.00
21644;BME280;10983;51.982;9.226;2023-02-19T00:43:52;65387.91;;;-139.23;100.00
21644;BME280;10983;51.982;9.226;2023-02-19T00:46:22;65387.91;;;-139.23;100.00
21644;BME280;10983;51.982;9.226;2023-02-19T00:48:50;65387.91;;;-139.23;100.00
21644;BME280;10983;51.982;9.226;2023-02-19T00:51:18;65387.91;;;-139.23;100.00
21644;BME280;10983;51.982;9.226;2023-02-19T00:53:46;65387.91;;;-139.23;100.00
21644;BME280;10983;51.982;9.226;2023-02-19T00:56:18;65387.91;;;-139.23;100.00
21644;BME280;10983;51.982;9.226;2023-02-19T00:58:46;65387.91;;;-139.23;100.00
21644;BME280;10983;51.982;9.226;2023-02-19T01:01:14;65387.91;;;-139.23;100.00
21644;BME280;10983;51.982;9.226;2023-02-19T01:03:42;65387.91;;;-139.23;100.00
21644;BME280;10983;51.982;9.226;2023-02-19T01:06:10;65387.91;;;-139.23;100.00
21644;BME280;10983;51.982;9.226;2023-02-19T01:08:39;65387.91;;;-139.23;100.00
21644;BME280;10983;51.982;9.226;2023-02-19T01:11:08;65387.91;;;-139.23;100.00
21644;BME280;10983;51.982;9.226;2023-02-19T01:13:38;65387.91;;;-139.23;100.00
21644;BME280;10983;51.982;9.226;2023-02-19T01:16:07;65387.91;;;-139.23;100.00
21644;BME280;10983;51.982;9.226;2023-02-19T01:18:35;65387.91;;;-139.23;100.00
21644;BME280;10983;51.982;9.226;2023-02-19T01:21:04;65387.91;;;-139.23;100.00
21644;BME280;10983;51.982;9.226;2023-02-19T01:23:34;65387.91;;;-139.23;100.00
21644;BME280;10983;51.982;9.226;2023-02-19T01:26:05;65387.91;;;-139.23;100.00
21644;BME280;10983;51.982;9.226;2023-02-19T01:28:33;65387.91;;;-139.23;100.00
21644;BME280;10983;51.982;9.226;2023-02-19T01:31:03;65387.91;;;-139.23;100.00
21644;BME280;10983;51.982;9.226;2023-02-19T01:33:32;65387.91;;;-139.23;100.00
21644;BME280;10983;51.982;9.226;2023-02-19T01:36:02;65387.91;;;-139.23;100.00
21644;BME280;10983;51.982;9.226;2023-02-19T01:38:29;65387.91;;;-139.23;100.00
21644;BME280;10983;51.982;9.226;2023-02-19T01:40:58;65387.91;;;-139.23;100.00
21644;BME280;10983;51.982;9.226;2023-02-19T01:43:26;65387.91;;;-139.23;100.00
21644;BME280;10983;51.982;9.226;2023-02-19T01:45:54;65387.91;;;-139.23;100.00
21644;BME280;10983;51.982;9.226;2023-02-19T01:48:24;65387.91;;;-139.23;100.00
21644;BME280;10983;51.982;9.226;2023-02-19T01:50:56;65387.91;;;-139.23;100.00
21644;BME280;10983;51.982;9.226;2023-02-19T01:53:27;65387.91;;;-139.23;100.00
21644;BME280;10983;51.982;9.226;2023-02-19T01:55:58;65387.91;;;-139.23;100.00
21644;BME280;10983;51.982;9.226;2023-02-19T01:58:29;65387.91;;;-139.23;100.00
21644;BME280;10983;51.982;9.226;2023-02-19T02:00:58;65387.91;;;-139.23;100.00
21644;BME280;10983;51.982;9.226;2023-02-19T02:03:29;65387.91;;;-139.23;100.00
21644;BME280;10983;51.982;9.226;2023-02-19T02:06:00;65387.91;;;-139.23;100.00
21644;BME280;10983;51.982;9.226;2023-02-19T02:08:29;65387.91;;;-139.23;100.00
21644;BME280;10983;51.982;9.226;2023-02-19T02:11:18;65387.91;;;-139.23;100.00
21644;BME280;10983;51.982;9.226;2023-02-19T02:13:47;65387.91;;;-139.23;100.00
21644;BME280;10983;51.982;9.226;2023-02-19T02:16:21;65387.91;;;-139.23;100.00
21644;BME280;10983;51.982;9.226;2023-02-19T02:18:58;65387.91;;;-139.23;100.00
21644;BME280;10983;51.982;9.226;2023-02-19T02:21:52;65387.91;;;-139.23;100.00
21644;BME280;10983;51.982;9.226;2023-02-19T02:24:51;65387.91;;;-139.23;100.00
21644;BME280;10983;51.982;9.226;2023-02-19T02:27:35;65387.91;;;-139.23;100.00
21644;BME280;10983;51.982;9.226;2023-02-19T02:30:14;65387.91;;;-139.23;100.00
21644;BME280;10983;51.982;9.226;2023-02-19T02:32:50;65387.91;;;-139.23;100.00
21644;BME280;10983;51.982;9.226;2023-02-19T02:35:22;65387.91;;;-139.23;100.00
21644;BME280;10983;51.982;9.226;2023-02-19T02:37:54;65387.91;;;-139.23;100.00
21644;BME280;10983;51.982;9.226;2023-02-19T02:40:23;65387.91;;;-139.23;100.00
21644;BME280;10983;51.982;9.226;2023-02-19T02:42:51;65387.91;;;-139.23;100.00
21644;BME280;10983;51.982;9.226;2023-02-19T02:45:26;65387.91;;;-139.23;100.00
21644;BME280;10983;51.982;9.226;2023-02-19T02:48:08;65387.91;;;-139.23;100.00
21644;BME280;10983;51.982;9.226;2023-02-19T02:50:41;65387.91;;;-139.23;100.00
21644;BME280;10983;51.982;9.226;2023-02-19T02:53:13;65387.91;;;-139.23;100.00
21644;BME280;10983;51.982;9.226;2023-02-19T02:55:56;65387.91;;;-139.23;100.00
21644;BME280;10983;51.982;9.226;2023-02-19T02:58:27;65387.91;;;-139.23;100.00
21644;BME280;10983;51.982;9.226;2023-02-19T03:00:59;65387.91;;;-139.23;100.00
21644;BME280;10983;51.982;9.226;2023-02-19T03:03:50;65387.91;;;-139.23;100.00
21644;BME280;10983;51.982;9.226;2023-02-19T03:06:20;65387.91;;;-139.23;100.00
21644;BME280;10983;51.982;9.226;2023-02-19T03:08:53;65387.91;;;-139.23;100.00
21644;BME280;10983;51.982;9.226;2023-02-19T03:11:22;65387.91;;;-139.23;100.00
21644;BME280;10983;51.982;9.226;2023-02-19T03:14:07;65387.91;;;-139.23;100.00
21644;BME280;10983;51.982;9.226;2023-02-19T03:16:59;65387.91;;;-139.23;100.00
21644;BME280;10983;51.982;9.226;2023-02-19T03:19:50;65387.91;;;-139.23;100.00
21644;BME280;10983;51.982;9.226;2023-02-19T03:22:21;65387.91;;;-139.23;100.00
21644;BME280;10983;51.982;9.226;2023-02-19T03:24:54;65387.91;;;-139.23;100.00
21644;BME280;10983;51.982;9.226;2023-02-19T03:27:41;65387.91;;;-139.23;100.00
21644;BME280;10983;51.982;9.226;2023-02-19T03:30:12;65387.91;;;-139.23;100.00
21644;BME280;10983;51.982;9.226;2023-02-19T03:32:45;65387.91;;;-139.23;100.00
21644;BME280;10983;51.982;9.226;2023-02-19T03:35:17;65387.91;;;-139.23;100.00
21644;BME280;10983;51.982;9.226;2023-02-19T03:37:49;65387.91;;;-139.23;100.00
21644;BME280;10983;51.982;9.226;2023-02-19T03:40:19;65387.91;;;-139.23;100.00
21644;BME280;10983;51.982;9.226;2023-02-19T03:42:55;65387.91;;;-139.23;100.00
21644;BME280;10983;51.982;9.226;2023-02-19T03:45:31;65387.91;;;-139.23;100.00
21644;BME280;10983;51.982;9.226;2023-02-19T03:48:22;65387.91;;;-139.23;100.00
21644;BME280;10983;51.982;9.226;2023-02-19T03:51:01;65387.91;;;-139.23;100.00
21644;BME280;10983;51.982;9.226;2023-02-19T03:53:37;65387.91;;;-139.23;100.00
21644;BME280;10983;51.982;9.226;2023-02-19T03:56:15;65387.91;;;-139.23;100.00
21644;BME280;10983;51.982;9.226;2023-02-19T03:58:50;65387.91;;;-139.23;100.00
21644;BME280;10983;51.982;9.226;2023-02-19T04:01:26;65387.91;;;-139.23;100.00
21644;BME280;10983;51.982;9.226;2023-02-19T04:04:00;65387.91;;;-139.23;100.00
21644;BME280;10983;51.982;9.226;2023-02-19T04:06:31;65387.91;;;-139.23;100.00
21644;BME280;10983;51.982;9.226;2023-02-19T04:09:02;65387.91;;;-139.23;100.00
21644;BME280;10983;51.982;9.226;2023-02-19T04:11:31;65387.91;;;-139.23;100.00
21644;BME280;10983;51.982;9.226;2023-02-19T04:14:02;65387.91;;;-139.23;100.00
21644;BME280;10983;51.982;9.226;2023-02-19T04:16:32;65387.91;;;-139.23;100.00
21644;BME280;10983;51.982;9.226;2023-02-19T04:19:06;65387.91;;;-139.23;100.00
21644;BME280;10983;51.982;9.226;2023-02-19T04:21:36;65387.91;;;-139.23;100.00
21644;BME280;10983;51.982;9.226;2023-02-19T04:24:08;65387.91;;;-139.23;100.00
21644;BME280;10983;51.982;9.226;2023-02-19T04:26:36;65387.91;;;-139.23;100.00
21644;BME280;10983;51.982;9.226;2023-02-19T04:29:04;65387.91;;;-139.23;100.00
21644;BME280;10983;51.982;9.226;2023-02-19T04:31:32;65387.91;;;-139.23;100.00
21644;BME280;10983;51.982;9.226;2023-02-19T04:34:03;65387.91;;;-139.23;100.00
21644;BME280;10983;51.982;9.226;2023-02-19T04:36:31;65387.91;;;-139.23;100.00
21644;BME280;10983;51.982;9.226;2023-02-19T04:38:59;65387.91;;;-139.23;100.00
21644;BME280;10983;51.982;9.226;2023-02-19T04:41:26;65387.91;;;-139.23;100.00
21644;BME280;10983;51.982;9.226;2023-02-19T04:43:54;65387.91;;;-139.23;100.00
21644;BME280;10983;51.982;9.226;2023-02-19T04:46:22;65387.91;;;-139.23;100.00
21644;BME280;10983;51.982;9.226;2023-02-19T04:48:51;65387.91;;;-139.23;100.00
21644;BME280;10983;51.982;9.226;2023-02-19T04:51:20;65387.91;;;-139.23;100.00
21644;BME280;10983;51.982;9.226;2023-02-19T04:53:48;65387.91;;;-139.23;100.00
21644;BME280;10983;51.982;9.226;2023-02-19T04:56:16;65387.91;;;-139.23;100.00
21644;BME280;10983;51.982;9.226;2023-02-19T04:58:44;65387.91;;;-139.23;100.00
21644;BME280;10983;51.982;9.226;2023-02-19T05:01:12;65387.91;;;-139.23;100.00
21644;BME280;10983;51.982;9.226;2023-02-19T05:03:40;65387.91;;;-139.23;100.00
21644;BME280;10983;51.982;9.226;2023-02-19T05:06:09;65387.91;;;-139.23;100.00
21644;BME280;10983;51.982;9.226;2023-02-19T05:08:39;65387.91;;;-139.23;100.00
21644;BME280;10983;51.982;9.226;2023-02-19T05:11:09;65387.91;;;-139.23;100.00
21644;BME280;10983;51.982;9.226;2023-02-19T05:13:38;65387.91;;;-139.23;100.00
21644;BME280;10983;51.982;9.226;2023-02-19T05:16:08;65387.91;;;-139.23;100.00
21644;BME280;10983;51.982;9.226;2023-02-19T05:18:39;65387.91;;;-139.23;100.00
21644;BME280;10983;51.982;9.226;2023-02-19T05:21:07;65387.91;;;-139.23;100.00
21644;BME280;10983;51.982;9.226;2023-02-19T05:23:36;65387.91;;;-139.23;100.00
21644;BME280;10983;51.982;9.226;2023-02-19T05:26:06;65387.91;;;-139.23;100.00
21644;BME280;10983;51.982;9.226;2023-02-19T05:28:34;65387.91;;;-139.23;100.00
21644;BME280;10983;51.982;9.226;2023-02-19T05:31:04;65387.91;;;-139.23;100.00
21644;BME280;10983;51.982;9.226;2023-02-19T05:33:32;65387.91;;;-139.23;100.00
21644;BME280;10983;51.982;9.226;2023-02-19T05:36:04;65387.91;;;-139.23;100.00
21644;BME280;10983;51.982;9.226;2023-02-19T05:38:33;65387.91;;;-139.23;100.00
21644;BME280;10983;51.982;9.226;2023-02-19T05:41:11;65387.91;;;-139.23;100.00
21644;BME280;10983;51.982;9.226;2023-02-19T05:43:40;65387.91;;;-139.23;100.00
21644;BME280;10983;51.982;9.226;2023-02-19T05:46:09;65387.91;;;-139.23;100.00
21644;BME280;10983;51.982;9.226;2023-02-19T05:48:37;65387.91;;;-139.23;100.00
21644;BME280;10983;51.982;9.226;2023-02-19T05:51:06;65387.91;;;-139.23;100.00
21644;BME280;10983;51.982;9.226;2023-02-19T05:53:41;65387.91;;;-139.23;100.00
21644;BME280;10983;51.982;9.226;2023-02-19T05:56:25;65387.91;;;-139.23;100.00
21644;BME280;10983;51.982;9.226;2023-02-19T05:58:54;65387.91;;;-139.23;100.00
21644;BME280;10983;51.982;9.226;2023-02-19T06:01:24;65387.91;;;-139.23;100.00
21644;BME280;10983;51.982;9.226;2023-02-19T06:03:52;65387.91;;;-139.23;100.00
21644;BME280;10983;51.982;9.226;2023-02-19T06:06:25;65387.91;;;-139.23;100.00
21644;BME280;10983;51.982;9.226;2023-02-19T06:08:53;65387.91;;;-139.23;100.00
21644;BME280;10983;51.982;9.226;2023-02-19T06:11:23;65387.91;;;-139.23;100.00
21644;BME280;10983;51.982;9.226;2023-02-19T06:13:50;65387.91;;;-139.23;100.00
21644;BME280;10983;51.982;9.226;2023-02-19T06:16:18;65387.91;;;-139.23;100.00
21644;BME280;10983;51.982;9.226;2023-02-19T06:18:48;65387.91;;;-139.23;100.00
21644;BME280;10983;51.982;9.226;2023-02-19T06:21:16;65387.91;;;-139.23;100.00
21644;BME280;10983;51.982;9.226;2023-02-19T06:23:44;65387.91;;;-139.23;100.00
21644;BME280;10983;51.982;9.226;2023-02-19T06:26:15;65387.91;;;-139.23;100.00
21644;BME280;10983;51.982;9.226;2023-02-19T06:28:46;65387.91;;;-139.23;100.00
21644;BME280;10983;51.982;9.226;2023-02-19T06:31:14;65387.91;;;-139.23;100.00
21644;BME280;10983;51.982;9.226;2023-02-19T06:33:42;65387.91;;;-139.23;100.00
21644;BME280;10983;51.982;9.226;2023-02-19T06:36:12;65387.91;;;-139.23;100.00
21644;BME280;10983;51.982;9.226;2023-02-19T06:38:39;65387.91;;;-139.23;100.00
21644;BME280;10983;51.982;9.226;2023-02-19T06:41:08;65387.91;;;-139.23;100.00
21644;BME280;10983;51.982;9.226;2023-02-19T06:43:36;65387.91;;;-139.23;100.00
21644;BME280;10983;51.982;9.226;2023-02-19T06:46:05;65387.91;;;-139.23;100.00
21644;BME280;10983;51.982;9.226;2023-02-19T06:48:33;65387.91;;;-139.23;100.00
21644;BME280;10983;51.982;9.226;2023-02-19T06:51:01;65387.91;;;-139.23;100.00
21644;BME280;10983;51.982;9.226;2023-02-19T06:53:29;65387.91;;;-139.23;100.00
21644;BME280;10983;51.982;9.226;2023-02-19T06:55:58;65387.91;;;-139.23;100.00
21644;BME280;10983;51.982;9.226;2023-02-19T06:58:26;65387.91;;;-139.23;100.00
21644;BME280;10983;51.982;9.226;2023-02-19T07:00:54;65387.91;;;-139.23;100.00
21644;BME280;10983;51.982;9.226;2023-02-19T07:03:23;65387.91;;;-139.23;100.00
21644;BME280;10983;51.982;9.226;2023-02-19T07:05:52;65387.91;;;-139.23;100.00
21644;BME280;10983;51.982;9.226;2023-02-19T07:08:19;65387.91;;;-139.23;100.00
21644;BME280;10983;51.982;9.226;2023-02-19T07:10:53;65387.91;;;-139.23;100.00
21644;BME280;10983;51.982;9.226;2023-02-19T07:13:21;65387.91;;;-139.23;100.00
21644;BME280;10983;51.982;9.226;2023-02-19T07:15:48;65387.91;;;-139.23;100.00
21644;BME280;10983;51.982;9.226;2023-02-19T07:18:17;65387.91;;;-139.23;100.00
21644;BME280;10983;51.982;9.226;2023-02-19T07:20:49;65387.91;;;-139.23;100.00
21644;BME280;10983;51.982;9.226;2023-02-19T07:23:17;65387.91;;;-139.23;100.00
21644;BME280;10983;51.982;9.226;2023-02-19T07:25:44;65387.91;;;-139.23;100.00
21644;BME280;10983;51.982;9.226;2023-02-19T07:28:12;65387.91;;;-139.23;100.00
21644;BME280;10983;51.982;9.226;2023-02-19T07:30:39;65387.91;;;-139.23;100.00
21644;BME280;10983;51.982;9.226;2023-02-19T07:33:06;65387.91;;;-139.23;100.00
21644;BME280;10983;51.982;9.226;2023-02-19T07:35:44;65387.91;;;-139.23;100.00
21644;BME280;10983;51.982;9.226;2023-02-19T07:38:15;65387.91;;;-139.23;100.00
21644;BME280;10983;51.982;9.226;2023-02-19T07:40:50;65387.91;;;-139.23;100.00
21644;BME280;10983;51.982;9.226;2023-02-19T07:43:18;65387.91;;;-139.23;100.00
21644;BME280;10983;51.982;9.226;2023-02-19T07:45:47;65387.91;;;-139.23;100.00
21644;BME280;10983;51.982;9.226;2023-02-19T07:48:16;65387.91;;;-139.23;100.00
21644;BME280;10983;51.982;9.226;2023-02-19T07:50:50;65387.91;;;-139.23;100.00
21644;BME280;10983;51.982;9.226;2023-02-19T07:53:19;65387.91;;;-139.23;100.00
21644;BME280;10983;51.982;9.226;2023-02-19T07:55:47;65387.91;;;-139.23;100.00
21644;BME280;10983;51.982;9.226;2023-02-19T07:58:14;65387.91;;;-139.23;100.00
21644;BME280;10983;51.982;9.226;2023-02-19T08:00:42;65387.91;;;-139.23;100.00
21644;BME280;10983;51.982;9.226;2023-02-19T08:03:10;65387.91;;;-139.23;100.00
21644;BME280;10983;51.982;9.226;2023-02-19T08:05:39;65387.91;;;-139.23;100.00
21644;BME280;10983;51.982;9.226;2023-02-19T08:08:08;65387.91;;;-139.23;100.00
21644;BME280;10983;51.982;9.226;2023-02-19T08:10:37;65387.91;;;-139.23;100.00
21644;BME280;10983;51.982;9.226;2023-02-19T08:13:23;65387.91;;;-139.23;100.00
21644;BME280;10983;51.982;9.226;2023-02-19T08:15:53;65387.91;;;-139.23;100.00
21644;BME280;10983;51.982;9.226;2023-02-19T08:18:33;65387.91;;;-139.23;100.00
21644;BME280;10983;51.982;9.226;2023-02-19T08:21:00;65387.91;;;-139.23;100.00
21644;BME280;10983;51.982;9.226;2023-02-19T08:23:28;65387.91;;;-139.23;100.00
21644;BME280;10983;51.982;9.226;2023-02-19T08:25:58;65387.91;;;-139.23;100.00
21644;BME280;10983;51.982;9.226;2023-02-19T08:28:26;65387.91;;;-139.23;100.00
21644;BME280;10983;51.982;9.226;2023-02-19T08:30:58;65387.91;;;-139.23;100.00
21644;BME280;10983;51.982;9.226;2023-02-19T08:33:25;65387.91;;;-139.23;100.00
21644;BME280;10983;51.982;9.226;2023-02-19T08:35:53;65387.91;;;-139.23;100.00
21644;BME280;10983;51.982;9.226;2023-02-19T08:38:20;65387.91;;;-139.23;100.00
21644;BME280;10983;51.982;9.226;2023-02-19T08:40:48;65387.91;;;-139.23;100.00
21644;BME280;10983;51.982;9.226;2023-02-19T08:43:16;65387.91;;;-139.23;100.00
21644;BME280;10983;51.982;9.226;2023-02-19T08:45:45;65387.91;;;-139.23;100.00
21644;BME280;10983;51.982;9.226;2023-02-19T08:48:14;65387.91;;;-139.23;100.00
21644;BME280;10983;51.982;9.226;2023-02-19T08:50:42;65387.91;;;-139.23;100.00
21644;BME280;10983;51.982;9.226;2023-02-19T08:53:10;65387.91;;;-139.23;100.00
21644;BME280;10983;51.982;9.226;2023-02-19T08:55:37;65387.91;;;-139.23;100.00
21644;BME280;10983;51.982;9.226;2023-02-19T08:58:06;65387.91;;;-139.23;100.00
21644;BME280;10983;51.982;9.226;2023-02-19T09:00:35;65387.91;;;-139.23;100.00
21644;BME280;10983;51.982;9.226;2023-02-19T09:03:02;65387.91;;;-139.23;100.00
21644;BME280;10983;51.982;9.226;2023-02-19T09:05:30;65387.91;;;-139.23;100.00
21644;BME280;10983;51.982;9.226;2023-02-19T09:07:57;65387.91;;;-139.23;100.00
21644;BME280;10983;51.982;9.226;2023-02-19T09:10:27;65387.91;;;-139.23;100.00
21644;BME280;10983;51.982;9.226;2023-02-19T09:12:55;65387.91;;;-139.23;100.00
21644;BME280;10983;51.982;9.226;2023-02-19T09:15:22;65387.91;;;-139.23;100.00
21644;BME280;10983;51.982;9.226;2023-02-19T09:17:51;65387.91;;;-139.23;100.00
21644;BME280;10983;51.982;9.226;2023-02-19T09:20:19;65387.91;;;-139.23;100.00
21644;BME280;10983;51.982;9.226;2023-02-19T09:22:46;65387.91;;;-139.23;100.00
21644;BME280;10983;51.982;9.226;2023-02-19T09:25:14;65387.91;;;-139.23;100.00
21644;BME280;10983;51.982;9.226;2023-02-19T09:27:44;65387.91;;;-139.23;100.00
21644;BME280;10983;51.982;9.226;2023-02-19T09:30:11;65387.91;;;-139.23;100.00
21644;BME280;10983;51.982;9.226;2023-02-19T09:32:39;65387.91;;;-139.23;100.00
21644;BME280;10983;51.982;9.226;2023-02-19T09:35:08;65387.91;;;-139.23;100.00
21644;BME280;10983;51.982;9.226;2023-02-19T09:37:35;65387.91;;;-139.23;100.00
21644;BME280;10983;51.982;9.226;2023-02-19T09:40:03;65387.91;;;-139.23;100.00
21644;BME280;10983;51.982;9.226;2023-02-19T09:42:31;65387.91;;;-139.23;100.00
21644;BME280;10983;51.982;9.226;2023-02-19T09:45:00;65387.91;;;-139.23;100.00
21644;BME280;10983;51.982;9.226;2023-02-19T09:47:29;65387.91;;;-139.23;100.00
21644;BME280;10983;51.982;9.226;2023-02-19T09:50:00;65387.91;;;-139.23;100.00
21644;BME280;10983;51.982;9.226;2023-02-19T09:52:34;65387.91;;;-139.23;100.00
21644;BME280;10983;51.982;9.226;2023-02-19T09:55:12;65387.91;;;-139.23;100.00
21644;BME280;10983;51.982;9.226;2023-02-19T09:57:41;65387.91;;;-139.23;100.00
21644;BME280;10983;51.982;9.226;2023-02-19T10:00:21;65387.91;;;-139.23;100.00
21644;BME280;10983;51.982;9.226;2023-02-19T10:02:51;65387.91;;;-139.23;100.00
21644;BME280;10983;51.982;9.226;2023-02-19T10:05:21;65387.91;;;-139.23;100.00
21644;BME280;10983;51.982;9.226;2023-02-19T10:07:52;65387.91;;;-139.23;100.00
21644;BME280;10983;51.982;9.226;2023-02-19T10:10:25;65387.91;;;-139.23;100.00
21644;BME280;10983;51.982;9.226;2023-02-19T10:12:55;65387.91;;;-139.23;100.00
21644;BME280;10983;51.982;9.226;2023-02-19T10:15:29;65387.91;;;-139.23;100.00
21644;BME280;10983;51.982;9.226;2023-02-19T10:17:58;65387.91;;;-139.23;100.00
21644;BME280;10983;51.982;9.226;2023-02-19T10:20:26;65387.91;;;-139.23;100.00
21644;BME280;10983;51.982;9.226;2023-02-19T10:23:01;65387.91;;;-139.23;100.00
21644;BME280;10983;51.982;9.226;2023-02-19T10:25:30;65387.91;;;-139.23;100.00
21644;BME280;10983;51.982;9.226;2023-02-19T10:27:58;65387.91;;;-139.23;100.00
21644;BME280;10983;51.982;9.226;2023-02-19T10:30:30;65387.91;;;-139.23;100.00
21644;BME280;10983;51.982;9.226;2023-02-19T10:33:00;65387.91;;;-139.23;100.00
21644;BME280;10983;51.982;9.226;2023-02-19T10:35:34;65387.91;;;-139.23;100.00
21644;BME280;10983;51.982;9.226;2023-02-19T10:38:04;65387.91;;;-139.23;100.00
21644;BME280;10983;51.982;9.226;2023-02-19T10:40:33;65387.91;;;-139.23;100.00
21644;BME280;10983;51.982;9.226;2023-02-19T10:43:03;65387.91;;;-139.23;100.00
21644;BME280;10983;51.982;9.226;2023-02-19T10:45:36;65387.91;;;-139.23;100.00
21644;BME280;10983;51.982;9.226;2023-02-19T10:48:05;65387.91;;;-139.23;100.00
21644;BME280;10983;51.982;9.226;2023-02-19T10:50:35;65387.91;;;-139.23;100.00
21644;BME280;10983;51.982;9.226;2023-02-19T10:53:19;65387.91;;;-139.23;100.00
21644;BME280;10983;51.982;9.226;2023-02-19T10:56:05;65387.91;;;-139.23;100.00
21644;BME280;10983;51.982;9.226;2023-02-19T10:58:33;65387.91;;;-139.23;100.00
21644;BME280;10983;51.982;9.226;2023-02-19T11:01:15;65387.91;;;-139.23;100.00
21644;BME280;10983;51.982;9.226;2023-02-19T11:03:46;65387.91;;;-139.23;100.00
21644;BME280;10983;51.982;9.226;2023-02-19T11:06:15;65387.91;;;-139.23;100.00
21644;BME280;10983;51.982;9.226;2023-02-19T11:08:57;65387.91;;;-139.23;100.00
21644;BME280;10983;51.982;9.226;2023-02-19T11:11:31;65387.91;;;-139.23;100.00
21644;BME280;10983;51.982;9.226;2023-02-19T11:14:02;65387.91;;;-139.23;100.00
21644;BME280;10983;51.982;9.226;2023-02-19T11:16:40;65387.91;;;-139.23;100.00
21644;BME280;10983;51.982;9.226;2023-02-19T11:19:23;65387.91;;;-139.23;100.00
21644;BME280;10983;51.982;9.226;2023-02-19T11:21:56;65387.91;;;-139.23;100.00
21644;BME280;10983;51.982;9.226;2023-02-19T11:24:29;65387.91;;;-139.23;100.00
21644;BME280;10983;51.982;9.226;2023-02-19T11:26:59;65387.91;;;-139.23;100.00
21644;BME280;10983;51.982;9.226;2023-02-19T11:29:29;65387.91;;;-139.23;100.00
21644;BME280;10983;51.982;9.226;2023-02-19T11:32:26;100964.16;;;10.66;100.00
21644;BME280;10983;51.982;9.226;2023-02-19T11:35:13;100940.94;;;10.92;100.00
21644;BME280;10983;51.982;9.226;2023-02-19T11:37:53;100955.25;;;11.96;100.00
21644;BME280;10983;51.982;9.226;2023-02-19T11:40:28;100963.00;;;13.47;100.00
21644;BME280;10983;51.982;9.226;2023-02-19T11:43:01;100965.13;;;14.54;100.00
21644;BME280;10983;51.982;9.226;2023-02-19T11:45:36;100969.84;;;15.37;100.00
21644;BME280;10983;51.982;9.226;2023-02-19T11:48:22;100981.47;;;14.92;100.00
21644;BME280;10983;51.982;9.226;2023-02-19T11:51:04;100982.06;;;13.91;100.00
21644;BME280;10983;51.982;9.226;2023-02-19T11:53:34;100973.63;;;14.17;100.00
21644;BME280;10983;51.982;9.226;2023-02-19T11:56:16;100979.06;;;13.29;100.00
21644;BME280;10983;51.982;9.226;2023-02-19T11:58:57;100967.66;;;12.09;100.00
21644;BME280;10983;51.982;9.226;2023-02-19T12:04:52;100963.03;;;14.45;100.00
21644;BME280;10983;51.982;9.226;2023-02-19T12:07:49;100964.47;;;13.14;100.00
21644;BME280;10983;51.982;9.226;2023-02-19T12:10:24;100961.44;;;12.15;100.00
21644;BME280;10983;51.982;9.226;2023-02-19T12:12:59;100954.22;;;12.39;100.00
21644;BME280;10983;51.982;9.226;2023-02-19T12:16:05;100963.53;;;11.88;100.00
21644;BME280;10983;51.982;9.226;2023-02-19T12:19:08;100955.09;;;11.30;100.00
21644;BME280;10983;51.982;9.226;2023-02-19T12:21:45;100949.25;;;11.46;100.00
21644;BME280;10983;51.982;9.226;2023-02-19T12:24:42;100934.28;;;11.14;100.00
21644;BME280;10983;51.982;9.226;2023-02-19T12:27:24;100952.47;;;11.17;100.00
21644;BME280;10983;51.982;9.226;2023-02-19T12:30:04;100946.84;;;12.59;100.00
21644;BME280;10983;51.982;9.226;2023-02-19T12:33:08;100959.97;;;15.54;100.00
21644;BME280;10983;51.982;9.226;2023-02-19T12:35:57;100982.94;;;15.94;100.00
21644;BME280;10983;51.982;9.226;2023-02-19T12:38:30;100989.47;;;13.19;100.00
21644;BME280;10983;51.982;9.226;2023-02-19T12:41:19;100978.75;;;12.30;100.00
21644;BME280;10983;51.982;9.226;2023-02-19T12:43:52;100984.41;;;12.16;100.00
21644;BME280;10983;51.982;9.226;2023-02-19T12:46:25;100967.91;;;11.46;100.00
21644;BME280;10983;51.982;9.226;2023-02-19T12:48:57;100972.09;;;11.66;100.00
21644;BME280;10983;51.982;9.226;2023-02-19T12:51:29;100967.91;;;12.25;100.00
21644;BME280;10983;51.982;9.226;2023-02-19T12:54:05;100975.34;;;14.57;100.00
21644;BME280;10983;51.982;9.226;2023-02-19T12:56:42;100996.34;;;16.59;100.00
21644;BME280;10983;51.982;9.226;2023-02-19T12:59:15;101006.66;;;14.45;100.00